sensor_id;sensor_type;location;lat;lon;timestamp;temperature;humidity
70676;DHT22;59069;52.242;20.900;2023-05-31T00:01:58;14.33;50.65
70676;DHT22;59069;52.242;20.900;2023-05-31T00:04:23;14.29;50.77
70676;DHT22;59069;52.242;20.900;2023-05-31T00:06:49;14.26;50.71
70676;DHT22;59069;52.242;20.900;2023-05-31T00:09:15;14.21;50.78
70676;DHT22;59069;52.242;20.900;2023-05-31T00:11:40;14.18;50.81
70676;DHT22;59069;52.242;20.900;2023-05-31T00:14:06;14.14;50.73
70676;DHT22;59069;52.242;20.900;2023-05-31T00:16:31;14.11;50.89
70676;DHT22;59069;52.242;20.900;2023-05-31T00:18:57;14.06;50.96
70676;DHT22;59069;52.242;20.900;2023-05-31T00:21:23;14.05;50.99
70676;DHT22;59069;52.242;20.900;2023-05-31T00:23:48;14.04;51.06
70676;DHT22;59069;52.242;20.900;2023-05-31T00:26:14;13.98;51.10
70676;DHT22;59069;52.242;20.900;2023-05-31T00:28:39;13.95;51.12
70676;DHT22;59069;52.242;20.900;2023-05-31T00:31:05;13.94;51.29
70676;DHT22;59069;52.242;20.900;2023-05-31T00:33:30;13.94;51.31
70676;DHT22;59069;52.242;20.900;2023-05-31T00:35:56;13.88;51.53
70676;DHT22;59069;52.242;20.900;2023-05-31T00:38:21;13.84;51.64
70676;DHT22;59069;52.242;20.900;2023-05-31T00:40:46;13.79;51.62
70676;DHT22;59069;52.242;20.900;2023-05-31T00:43:13;13.78;51.80
70676;DHT22;59069;52.242;20.900;2023-05-31T00:45:38;13.74;51.88
70676;DHT22;59069;52.242;20.900;2023-05-31T00:48:04;13.70;52.01
70676;DHT22;59069;52.242;20.900;2023-05-31T00:50:30;13.65;52.32
70676;DHT22;59069;52.242;20.900;2023-05-31T00:52:56;13.57;52.75
70676;DHT22;59069;52.242;20.900;2023-05-31T00:55:23;13.54;53.25
70676;DHT22;59069;52.242;20.900;2023-05-31T00:57:50;13.51;53.73
70676;DHT22;59069;52.242;20.900;2023-05-31T01:00:15;13.50;53.96
70676;DHT22;59069;52.242;20.900;2023-05-31T01:02:41;13.47;54.25
70676;DHT22;59069;52.242;20.900;2023-05-31T01:05:08;13.43;54.43
70676;DHT22;59069;52.242;20.900;2023-05-31T01:07:34;13.30;54.69
70676;DHT22;59069;52.242;20.900;2023-05-31T01:10:20;13.22;54.94
70676;DHT22;59069;52.242;20.900;2023-05-31T01:15:20;13.06;55.35
70676;DHT22;59069;52.242;20.900;2023-05-31T01:18:20;13.00;55.69
70676;DHT22;59069;52.242;20.900;2023-05-31T01:20:52;12.96;55.83
70676;DHT22;59069;52.242;20.900;2023-05-31T01:23:41;12.93;55.95
70676;DHT22;59069;52.242;20.900;2023-05-31T01:26:35;12.86;56.25
70676;DHT22;59069;52.242;20.900;2023-05-31T01:29:04;12.81;56.44
70676;DHT22;59069;52.242;20.900;2023-05-31T01:31:31;12.76;56.53
70676;DHT22;59069;52.242;20.900;2023-05-31T01:33:59;12.71;56.59
70676;DHT22;59069;52.242;20.900;2023-05-31T01:36:25;12.63;56.68
70676;DHT22;59069;52.242;20.900;2023-05-31T01:38:50;12.62;56.88
70676;DHT22;59069;52.242;20.900;2023-05-31T01:41:17;12.59;57.05
70676;DHT22;59069;52.242;20.900;2023-05-31T01:43:44;12.48;57.29
70676;DHT22;59069;52.242;20.900;2023-05-31T01:46:12;12.38;57.56
70676;DHT22;59069;52.242;20.900;2023-05-31T01:48:39;12.32;57.85
70676;DHT22;59069;52.242;20.900;2023-05-31T01:51:08;12.27;58.06
70676;DHT22;59069;52.242;20.900;2023-05-31T01:53:34;12.24;58.34
70676;DHT22;59069;52.242;20.900;2023-05-31T01:56:01;12.21;58.60
70676;DHT22;59069;52.242;20.900;2023-05-31T01:58:28;12.18;58.86
70676;DHT22;59069;52.242;20.900;2023-05-31T02:00:55;12.17;58.87
70676;DHT22;59069;52.242;20.900;2023-05-31T02:03:21;12.10;59.04
70676;DHT22;59069;52.242;20.900;2023-05-31T02:06:00;12.04;59.21
70676;DHT22;59069;52.242;20.900;2023-05-31T02:08:26;12.00;59.35
70676;DHT22;59069;52.242;20.900;2023-05-31T02:10:53;11.90;59.51
70676;DHT22;59069;52.242;20.900;2023-05-31T02:13:19;11.86;59.66
70676;DHT22;59069;52.242;20.900;2023-05-31T02:15:45;11.80;59.74
70676;DHT22;59069;52.242;20.900;2023-05-31T02:18:11;11.73;59.92
70676;DHT22;59069;52.242;20.900;2023-05-31T02:20:37;11.70;60.11
70676;DHT22;59069;52.242;20.900;2023-05-31T02:23:03;11.69;60.31
70676;DHT22;59069;52.242;20.900;2023-05-31T02:25:28;11.67;60.53
70676;DHT22;59069;52.242;20.900;2023-05-31T02:27:54;11.65;60.65
70676;DHT22;59069;52.242;20.900;2023-05-31T02:30:20;11.63;61.00
70676;DHT22;59069;52.242;20.900;2023-05-31T02:32:45;11.59;61.04
70676;DHT22;59069;52.242;20.900;2023-05-31T02:35:11;11.55;61.20
70676;DHT22;59069;52.242;20.900;2023-05-31T02:37:38;11.47;61.34
70676;DHT22;59069;52.242;20.900;2023-05-31T02:40:05;11.44;61.41
70676;DHT22;59069;52.242;20.900;2023-05-31T02:42:34;11.43;61.47
70676;DHT22;59069;52.242;20.900;2023-05-31T02:45:00;11.38;61.56
70676;DHT22;59069;52.242;20.900;2023-05-31T02:47:25;11.38;61.71
70676;DHT22;59069;52.242;20.900;2023-05-31T02:49:51;11.39;61.85
70676;DHT22;59069;52.242;20.900;2023-05-31T02:52:16;11.36;61.80
70676;DHT22;59069;52.242;20.900;2023-05-31T02:54:41;11.32;61.87
70676;DHT22;59069;52.242;20.900;2023-05-31T02:57:07;11.31;62.00
70676;DHT22;59069;52.242;20.900;2023-05-31T02:59:32;11.28;62.03
70676;DHT22;59069;52.242;20.900;2023-05-31T03:01:58;11.26;62.20
70676;DHT22;59069;52.242;20.900;2023-05-31T03:04:24;11.28;62.33
70676;DHT22;59069;52.242;20.900;2023-05-31T03:06:50;11.31;62.42
70676;DHT22;59069;52.242;20.900;2023-05-31T03:09:15;11.33;62.46
70676;DHT22;59069;52.242;20.900;2023-05-31T03:11:43;11.39;62.49
70676;DHT22;59069;52.242;20.900;2023-05-31T03:14:08;11.44;62.76
70676;DHT22;59069;52.242;20.900;2023-05-31T03:16:34;11.44;62.68
70676;DHT22;59069;52.242;20.900;2023-05-31T03:19:00;11.44;62.36
70676;DHT22;59069;52.242;20.900;2023-05-31T03:21:25;11.52;62.24
70676;DHT22;59069;52.242;20.900;2023-05-31T03:23:51;11.53;62.16
70676;DHT22;59069;52.242;20.900;2023-05-31T03:26:16;11.58;62.21
70676;DHT22;59069;52.242;20.900;2023-05-31T03:28:42;11.65;62.23
70676;DHT22;59069;52.242;20.900;2023-05-31T03:31:07;11.66;62.08
70676;DHT22;59069;52.242;20.900;2023-05-31T03:33:33;11.67;62.01
70676;DHT22;59069;52.242;20.900;2023-05-31T03:36:01;11.67;61.95
70676;DHT22;59069;52.242;20.900;2023-05-31T03:38:27;11.73;62.04
70676;DHT22;59069;52.242;20.900;2023-05-31T03:40:53;11.83;62.17
70676;DHT22;59069;52.242;20.900;2023-05-31T03:43:18;11.89;61.95
70676;DHT22;59069;52.242;20.900;2023-05-31T03:45:44;11.98;61.83
70676;DHT22;59069;52.242;20.900;2023-05-31T03:48:09;12.01;61.56
70676;DHT22;59069;52.242;20.900;2023-05-31T03:50:35;12.05;61.31
70676;DHT22;59069;52.242;20.900;2023-05-31T03:53:00;12.10;61.27
70676;DHT22;59069;52.242;20.900;2023-05-31T03:55:26;12.14;61.18
70676;DHT22;59069;52.242;20.900;2023-05-31T03:57:51;12.17;60.99
70676;DHT22;59069;52.242;20.900;2023-05-31T04:00:17;12.20;60.84
70676;DHT22;59069;52.242;20.900;2023-05-31T04:02:42;12.21;60.69
70676;DHT22;59069;52.242;20.900;2023-05-31T04:05:08;12.25;60.52
70676;DHT22;59069;52.242;20.900;2023-05-31T04:07:33;12.32;60.45
70676;DHT22;59069;52.242;20.900;2023-05-31T04:09:59;12.35;60.33
70676;DHT22;59069;52.242;20.900;2023-05-31T04:12:24;12.38;60.16
70676;DHT22;59069;52.242;20.900;2023-05-31T04:14:50;12.38;60.12
70676;DHT22;59069;52.242;20.900;2023-05-31T04:17:16;12.38;59.98
70676;DHT22;59069;52.242;20.900;2023-05-31T04:19:42;12.38;59.88
70676;DHT22;59069;52.242;20.900;2023-05-31T04:22:07;12.41;59.85
70676;DHT22;59069;52.242;20.900;2023-05-31T04:24:32;12.41;59.76
70676;DHT22;59069;52.242;20.900;2023-05-31T04:26:58;12.44;59.77
70676;DHT22;59069;52.242;20.900;2023-05-31T04:29:24;12.45;59.73
70676;DHT22;59069;52.242;20.900;2023-05-31T04:31:51;12.46;59.68
70676;DHT22;59069;52.242;20.900;2023-05-31T04:34:17;12.49;59.70
70676;DHT22;59069;52.242;20.900;2023-05-31T04:36:44;12.55;59.68
70676;DHT22;59069;52.242;20.900;2023-05-31T04:39:18;12.65;59.47
70676;DHT22;59069;52.242;20.900;2023-05-31T04:41:45;12.71;59.48
70676;DHT22;59069;52.242;20.900;2023-05-31T04:44:11;12.81;59.14
70676;DHT22;59069;52.242;20.900;2023-05-31T04:46:36;12.89;58.95
70676;DHT22;59069;52.242;20.900;2023-05-31T04:49:02;12.99;58.81
70676;DHT22;59069;52.242;20.900;2023-05-31T04:51:29;13.03;58.30
70676;DHT22;59069;52.242;20.900;2023-05-31T04:53:56;13.07;57.97
70676;DHT22;59069;52.242;20.900;2023-05-31T04:56:21;13.10;57.65
70676;DHT22;59069;52.242;20.900;2023-05-31T04:58:47;13.14;57.53
70676;DHT22;59069;52.242;20.900;2023-05-31T05:01:12;13.16;57.50
70676;DHT22;59069;52.242;20.900;2023-05-31T05:03:40;13.20;57.72
70676;DHT22;59069;52.242;20.900;2023-05-31T05:06:13;13.30;57.46
70676;DHT22;59069;52.242;20.900;2023-05-31T05:08:39;13.37;57.20
70676;DHT22;59069;52.242;20.900;2023-05-31T05:11:05;13.44;56.93
70676;DHT22;59069;52.242;20.900;2023-05-31T05:13:31;13.55;56.67
70676;DHT22;59069;52.242;20.900;2023-05-31T05:15:56;13.55;56.50
70676;DHT22;59069;52.242;20.900;2023-05-31T05:18:22;13.63;56.44
70676;DHT22;59069;52.242;20.900;2023-05-31T05:20:47;13.73;56.38
70676;DHT22;59069;52.242;20.900;2023-05-31T05:23:13;13.82;56.30
70676;DHT22;59069;52.242;20.900;2023-05-31T05:25:38;13.92;56.08
70676;DHT22;59069;52.242;20.900;2023-05-31T05:28:03;14.01;55.69
70676;DHT22;59069;52.242;20.900;2023-05-31T05:30:29;14.08;55.10
70676;DHT22;59069;52.242;20.900;2023-05-31T05:32:55;14.15;55.01
70676;DHT22;59069;52.242;20.900;2023-05-31T05:35:20;14.21;54.52
70676;DHT22;59069;52.242;20.900;2023-05-31T05:37:46;14.29;54.25
70676;DHT22;59069;52.242;20.900;2023-05-31T05:40:11;14.39;54.06
70676;DHT22;59069;52.242;20.900;2023-05-31T05:42:37;14.49;53.88
70676;DHT22;59069;52.242;20.900;2023-05-31T05:45:06;14.62;53.23
70676;DHT22;59069;52.242;20.900;2023-05-31T05:47:33;14.69;52.60
70676;DHT22;59069;52.242;20.900;2023-05-31T05:49:59;14.79;52.27
70676;DHT22;59069;52.242;20.900;2023-05-31T05:52:24;14.81;51.69
70676;DHT22;59069;52.242;20.900;2023-05-31T05:54:50;14.77;51.13
70676;DHT22;59069;52.242;20.900;2023-05-31T05:57:15;14.72;51.05
70676;DHT22;59069;52.242;20.900;2023-05-31T05:59:42;14.70;51.19
70676;DHT22;59069;52.242;20.900;2023-05-31T06:02:09;14.73;50.71
70676;DHT22;59069;52.242;20.900;2023-05-31T06:04:35;14.75;50.74
70676;DHT22;59069;52.242;20.900;2023-05-31T06:07:00;14.77;50.26
70676;DHT22;59069;52.242;20.900;2023-05-31T06:09:26;14.79;49.96
70676;DHT22;59069;52.242;20.900;2023-05-31T06:11:51;14.83;49.52
70676;DHT22;59069;52.242;20.900;2023-05-31T06:14:17;14.90;49.07
70676;DHT22;59069;52.242;20.900;2023-05-31T06:16:43;14.97;49.07
70676;DHT22;59069;52.242;20.900;2023-05-31T06:19:08;15.01;48.89
70676;DHT22;59069;52.242;20.900;2023-05-31T06:21:34;15.07;48.15
70676;DHT22;59069;52.242;20.900;2023-05-31T06:24:01;15.11;47.20
70676;DHT22;59069;52.242;20.900;2023-05-31T06:26:27;15.12;46.13
70676;DHT22;59069;52.242;20.900;2023-05-31T06:28:53;15.20;45.99
70676;DHT22;59069;52.242;20.900;2023-05-31T06:31:18;15.24;45.66
70676;DHT22;59069;52.242;20.900;2023-05-31T06:33:44;15.32;45.52
70676;DHT22;59069;52.242;20.900;2023-05-31T06:36:09;15.38;44.83
70676;DHT22;59069;52.242;20.900;2023-05-31T06:38:35;15.45;44.48
70676;DHT22;59069;52.242;20.900;2023-05-31T06:41:00;15.52;44.21
70676;DHT22;59069;52.242;20.900;2023-05-31T06:43:26;15.59;43.77
70676;DHT22;59069;52.242;20.900;2023-05-31T06:45:51;15.66;42.67
70676;DHT22;59069;52.242;20.900;2023-05-31T06:48:17;15.75;41.99
70676;DHT22;59069;52.242;20.900;2023-05-31T06:50:42;15.88;42.23
70676;DHT22;59069;52.242;20.900;2023-05-31T06:53:08;16.02;41.65
70676;DHT22;59069;52.242;20.900;2023-05-31T06:55:38;16.12;41.30
70676;DHT22;59069;52.242;20.900;2023-05-31T06:58:04;16.21;40.84
70676;DHT22;59069;52.242;20.900;2023-05-31T07:00:29;16.29;39.80
70676;DHT22;59069;52.242;20.900;2023-05-31T07:02:55;16.26;38.09
70676;DHT22;59069;52.242;20.900;2023-05-31T07:05:20;16.33;37.35
70676;DHT22;59069;52.242;20.900;2023-05-31T07:07:46;16.43;37.36
70676;DHT22;59069;52.242;20.900;2023-05-31T07:10:12;16.53;37.12
70676;DHT22;59069;52.242;20.900;2023-05-31T07:12:37;16.70;37.12
70676;DHT22;59069;52.242;20.900;2023-05-31T07:15:03;16.81;36.50
70676;DHT22;59069;52.242;20.900;2023-05-31T07:17:29;16.88;36.06
70676;DHT22;59069;52.242;20.900;2023-05-31T07:19:54;16.98;35.93
70676;DHT22;59069;52.242;20.900;2023-05-31T07:22:20;17.05;34.88
70676;DHT22;59069;52.242;20.900;2023-05-31T07:24:47;17.09;34.41
70676;DHT22;59069;52.242;20.900;2023-05-31T07:27:13;17.19;34.50
70676;DHT22;59069;52.242;20.900;2023-05-31T07:29:38;17.29;34.20
70676;DHT22;59069;52.242;20.900;2023-05-31T07:32:04;17.29;32.99
70676;DHT22;59069;52.242;20.900;2023-05-31T07:34:30;17.29;31.90
70676;DHT22;59069;52.242;20.900;2023-05-31T07:36:56;17.26;31.07
70676;DHT22;59069;52.242;20.900;2023-05-31T07:39:22;17.36;31.67
70676;DHT22;59069;52.242;20.900;2023-05-31T07:41:48;17.49;31.27
70676;DHT22;59069;52.242;20.900;2023-05-31T07:44:13;17.57;29.80
70676;DHT22;59069;52.242;20.900;2023-05-31T07:46:42;17.66;29.33
70676;DHT22;59069;52.242;20.900;2023-05-31T07:49:07;17.71;29.40
70676;DHT22;59069;52.242;20.900;2023-05-31T07:51:32;17.80;29.67
70676;DHT22;59069;52.242;20.900;2023-05-31T07:53:58;17.90;29.90
70676;DHT22;59069;52.242;20.900;2023-05-31T07:56:24;17.98;30.70
70676;DHT22;59069;52.242;20.900;2023-05-31T07:58:50;18.15;30.81
70676;DHT22;59069;52.242;20.900;2023-05-31T08:01:15;18.28;30.55
70676;DHT22;59069;52.242;20.900;2023-05-31T08:03:41;18.45;30.47
70676;DHT22;59069;52.242;20.900;2023-05-31T08:06:07;18.59;29.79
70676;DHT22;59069;52.242;20.900;2023-05-31T08:08:33;18.72;29.86
70676;DHT22;59069;52.242;20.900;2023-05-31T08:10:59;18.82;29.34
70676;DHT22;59069;52.242;20.900;2023-05-31T08:13:24;18.88;28.76
70676;DHT22;59069;52.242;20.900;2023-05-31T08:15:50;18.91;28.59
70676;DHT22;59069;52.242;20.900;2023-05-31T08:18:17;18.85;28.02
70676;DHT22;59069;52.242;20.900;2023-05-31T08:20:43;18.86;28.47
70676;DHT22;59069;52.242;20.900;2023-05-31T08:23:08;18.95;27.92
70676;DHT22;59069;52.242;20.900;2023-05-31T08:25:34;18.99;28.03
70676;DHT22;59069;52.242;20.900;2023-05-31T08:27:59;19.06;28.13
70676;DHT22;59069;52.242;20.900;2023-05-31T08:30:25;19.04;27.89
70676;DHT22;59069;52.242;20.900;2023-05-31T08:32:52;19.09;28.65
70676;DHT22;59069;52.242;20.900;2023-05-31T08:35:17;19.26;29.22
70676;DHT22;59069;52.242;20.900;2023-05-31T08:37:43;19.35;28.90
70676;DHT22;59069;52.242;20.900;2023-05-31T08:40:09;19.35;27.69
70676;DHT22;59069;52.242;20.900;2023-05-31T08:42:37;19.30;26.94
70676;DHT22;59069;52.242;20.900;2023-05-31T08:45:04;19.22;26.59
70676;DHT22;59069;52.242;20.900;2023-05-31T08:47:39;19.30;26.81
70676;DHT22;59069;52.242;20.900;2023-05-31T08:50:09;19.37;26.43
70676;DHT22;59069;52.242;20.900;2023-05-31T08:52:35;19.40;25.86
70676;DHT22;59069;52.242;20.900;2023-05-31T08:55:02;19.41;25.37
70676;DHT22;59069;52.242;20.900;2023-05-31T08:57:30;19.47;25.06
70676;DHT22;59069;52.242;20.900;2023-05-31T08:59:56;19.53;24.94
70676;DHT22;59069;52.242;20.900;2023-05-31T09:02:23;19.55;24.87
70676;DHT22;59069;52.242;20.900;2023-05-31T09:04:50;19.55;24.12
70676;DHT22;59069;52.242;20.900;2023-05-31T09:07:15;19.53;24.44
70676;DHT22;59069;52.242;20.900;2023-05-31T09:09:41;19.49;25.12
70676;DHT22;59069;52.242;20.900;2023-05-31T09:12:07;19.53;26.17
70676;DHT22;59069;52.242;20.900;2023-05-31T09:14:33;19.61;26.52
70676;DHT22;59069;52.242;20.900;2023-05-31T09:16:59;19.68;26.73
70676;DHT22;59069;52.242;20.900;2023-05-31T09:19:25;19.77;26.84
70676;DHT22;59069;52.242;20.900;2023-05-31T09:21:51;19.79;26.57
70676;DHT22;59069;52.242;20.900;2023-05-31T09:24:17;19.88;26.52
70676;DHT22;59069;52.242;20.900;2023-05-31T09:26:48;19.95;26.28
70676;DHT22;59069;52.242;20.900;2023-05-31T09:29:13;20.05;25.67
70676;DHT22;59069;52.242;20.900;2023-05-31T09:31:40;20.09;25.53
70676;DHT22;59069;52.242;20.900;2023-05-31T09:34:23;20.13;25.45
70676;DHT22;59069;52.242;20.900;2023-05-31T09:36:50;20.18;25.61
70676;DHT22;59069;52.242;20.900;2023-05-31T09:39:16;20.18;25.65
70676;DHT22;59069;52.242;20.900;2023-05-31T09:41:42;20.22;25.79
70676;DHT22;59069;52.242;20.900;2023-05-31T09:44:08;20.29;25.63
70676;DHT22;59069;52.242;20.900;2023-05-31T09:46:34;20.28;24.58
70676;DHT22;59069;52.242;20.900;2023-05-31T09:49:01;20.32;24.34
70676;DHT22;59069;52.242;20.900;2023-05-31T09:51:29;20.42;25.02
70676;DHT22;59069;52.242;20.900;2023-05-31T09:53:57;20.56;24.61
70676;DHT22;59069;52.242;20.900;2023-05-31T09:56:23;20.69;24.78
70676;DHT22;59069;52.242;20.900;2023-05-31T09:58:50;20.80;24.06
70676;DHT22;59069;52.242;20.900;2023-05-31T10:01:17;20.87;23.69
70676;DHT22;59069;52.242;20.900;2023-05-31T10:03:43;20.95;24.19
70676;DHT22;59069;52.242;20.900;2023-05-31T10:06:09;21.12;24.63
70676;DHT22;59069;52.242;20.900;2023-05-31T10:08:35;21.27;24.38
70676;DHT22;59069;52.242;20.900;2023-05-31T10:11:02;21.32;24.15
70676;DHT22;59069;52.242;20.900;2023-05-31T10:13:29;21.32;23.11
70676;DHT22;59069;52.242;20.900;2023-05-31T10:15:57;21.37;23.06
70676;DHT22;59069;52.242;20.900;2023-05-31T10:18:31;21.48;22.77
70676;DHT22;59069;52.242;20.900;2023-05-31T10:21:10;21.55;23.10
70676;DHT22;59069;52.242;20.900;2023-05-31T10:23:43;21.61;23.73
70676;DHT22;59069;52.242;20.900;2023-05-31T10:26:14;21.71;24.10
70676;DHT22;59069;52.242;20.900;2023-05-31T10:28:55;21.81;23.53
70676;DHT22;59069;52.242;20.900;2023-05-31T10:31:22;21.92;23.20
70676;DHT22;59069;52.242;20.900;2023-05-31T10:33:54;22.00;22.69
70676;DHT22;59069;52.242;20.900;2023-05-31T10:36:22;22.10;22.51
70676;DHT22;59069;52.242;20.900;2023-05-31T10:38:55;22.18;22.62
70676;DHT22;59069;52.242;20.900;2023-05-31T10:41:28;22.30;22.78
70676;DHT22;59069;52.242;20.900;2023-05-31T10:44:00;22.47;22.89
70676;DHT22;59069;52.242;20.900;2023-05-31T10:46:29;22.53;21.62
70676;DHT22;59069;52.242;20.900;2023-05-31T10:48:57;22.60;22.15
70676;DHT22;59069;52.242;20.900;2023-05-31T10:51:43;22.71;22.28
70676;DHT22;59069;52.242;20.900;2023-05-31T10:54:27;22.87;22.83
70676;DHT22;59069;52.242;20.900;2023-05-31T10:56:56;23.01;22.51
70676;DHT22;59069;52.242;20.900;2023-05-31T10:59:23;23.11;21.93
70676;DHT22;59069;52.242;20.900;2023-05-31T11:01:50;23.15;21.76
70676;DHT22;59069;52.242;20.900;2023-05-31T11:04:19;23.14;21.37
70676;DHT22;59069;52.242;20.900;2023-05-31T11:06:47;23.12;21.73
70676;DHT22;59069;52.242;20.900;2023-05-31T11:09:13;23.12;21.90
70676;DHT22;59069;52.242;20.900;2023-05-31T11:19:14;23.25;19.89
70676;DHT22;59069;52.242;20.900;2023-05-31T11:21:53;23.36;20.21
70676;DHT22;59069;52.242;20.900;2023-05-31T11:27:11;23.83;20.54
70676;DHT22;59069;52.242;20.900;2023-05-31T11:32:21;24.47;20.24
70676;DHT22;59069;52.242;20.900;2023-05-31T11:34:58;24.88;19.24
70676;DHT22;59069;52.242;20.900;2023-05-31T11:37:32;25.30;19.30
70676;DHT22;59069;52.242;20.900;2023-05-31T11:40:05;25.70;19.06
70676;DHT22;59069;52.242;20.900;2023-05-31T11:42:32;25.97;17.73
70676;DHT22;59069;52.242;20.900;2023-05-31T11:45:05;25.94;16.72
70676;DHT22;59069;52.242;20.900;2023-05-31T11:50:11;25.33;16.26
70676;DHT22;59069;52.242;20.900;2023-05-31T11:52:39;25.06;16.01
70676;DHT22;59069;52.242;20.900;2023-05-31T11:55:05;24.92;16.30
70676;DHT22;59069;52.242;20.900;2023-05-31T11:57:39;24.86;16.23
70676;DHT22;59069;52.242;20.900;2023-05-31T12:00:07;24.93;16.65
70676;DHT22;59069;52.242;20.900;2023-05-31T12:02:37;24.98;17.84
70676;DHT22;59069;52.242;20.900;2023-05-31T12:05:03;25.13;17.96
70676;DHT22;59069;52.242;20.900;2023-05-31T12:07:29;25.30;18.16
70676;DHT22;59069;52.242;20.900;2023-05-31T12:09:55;25.53;18.23
70676;DHT22;59069;52.242;20.900;2023-05-31T12:12:20;25.61;17.46
70676;DHT22;59069;52.242;20.900;2023-05-31T12:14:53;25.56;17.84
70676;DHT22;59069;52.242;20.900;2023-05-31T12:17:20;25.46;18.15
70676;DHT22;59069;52.242;20.900;2023-05-31T12:19:49;25.49;18.40
70676;DHT22;59069;52.242;20.900;2023-05-31T12:22:15;25.66;18.62
70676;DHT22;59069;52.242;20.900;2023-05-31T12:24:48;25.84;18.53
70676;DHT22;59069;52.242;20.900;2023-05-31T12:27:15;25.98;18.42
70676;DHT22;59069;52.242;20.900;2023-05-31T12:29:41;25.90;18.17
70676;DHT22;59069;52.242;20.900;2023-05-31T12:32:06;25.82;18.00
70676;DHT22;59069;52.242;20.900;2023-05-31T12:34:33;25.75;17.66
70676;DHT22;59069;52.242;20.900;2023-05-31T12:37:04;25.74;17.39
70676;DHT22;59069;52.242;20.900;2023-05-31T12:39:30;25.81;17.46
70676;DHT22;59069;52.242;20.900;2023-05-31T12:41:57;25.95;17.51
70676;DHT22;59069;52.242;20.900;2023-05-31T12:44:23;26.08;17.84
70676;DHT22;59069;52.242;20.900;2023-05-31T12:46:50;26.24;17.76
70676;DHT22;59069;52.242;20.900;2023-05-31T12:51:44;26.46;16.88
70676;DHT22;59069;52.242;20.900;2023-05-31T12:54:13;26.38;17.39
70676;DHT22;59069;52.242;20.900;2023-05-31T12:56:39;26.36;17.58
70676;DHT22;59069;52.242;20.900;2023-05-31T12:59:04;26.49;17.60
70676;DHT22;59069;52.242;20.900;2023-05-31T13:01:30;26.62;18.11
70676;DHT22;59069;52.242;20.900;2023-05-31T13:03:56;26.69;17.68
70676;DHT22;59069;52.242;20.900;2023-05-31T13:06:21;26.76;17.54
70676;DHT22;59069;52.242;20.900;2023-05-31T13:08:47;26.80;17.73
70676;DHT22;59069;52.242;20.900;2023-05-31T13:11:12;26.78;18.09
70676;DHT22;59069;52.242;20.900;2023-05-31T13:13:38;26.80;18.51
70676;DHT22;59069;52.242;20.900;2023-05-31T13:16:03;26.84;18.19
70676;DHT22;59069;52.242;20.900;2023-05-31T13:18:30;26.89;18.30
70676;DHT22;59069;52.242;20.900;2023-05-31T13:20:56;26.86;17.76
70676;DHT22;59069;52.242;20.900;2023-05-31T13:23:24;26.75;16.95
70676;DHT22;59069;52.242;20.900;2023-05-31T13:25:49;26.57;17.41
70676;DHT22;59069;52.242;20.900;2023-05-31T13:28:15;26.57;17.41
70676;DHT22;59069;52.242;20.900;2023-05-31T13:30:41;26.59;17.39
70676;DHT22;59069;52.242;20.900;2023-05-31T13:33:06;26.66;17.07
70676;DHT22;59069;52.242;20.900;2023-05-31T13:35:32;26.72;16.91
70676;DHT22;59069;52.242;20.900;2023-05-31T13:37:57;26.80;17.25
70676;DHT22;59069;52.242;20.900;2023-05-31T13:40:23;26.87;17.62
70676;DHT22;59069;52.242;20.900;2023-05-31T13:42:49;26.94;18.00
70676;DHT22;59069;52.242;20.900;2023-05-31T13:45:14;27.03;17.41
70676;DHT22;59069;52.242;20.900;2023-05-31T13:47:40;27.06;17.16
70676;DHT22;59069;52.242;20.900;2023-05-31T13:50:06;26.87;17.25
70676;DHT22;59069;52.242;20.900;2023-05-31T13:52:32;26.64;17.52
70676;DHT22;59069;52.242;20.900;2023-05-31T13:54:57;26.56;17.56
70676;DHT22;59069;52.242;20.900;2023-05-31T13:57:25;26.56;17.94
70676;DHT22;59069;52.242;20.900;2023-05-31T13:59:50;26.56;17.76
70676;DHT22;59069;52.242;20.900;2023-05-31T14:02:17;26.50;18.03
70676;DHT22;59069;52.242;20.900;2023-05-31T14:04:42;26.42;18.10
70676;DHT22;59069;52.242;20.900;2023-05-31T14:07:07;26.46;18.49
70676;DHT22;59069;52.242;20.900;2023-05-31T14:09:33;26.56;18.41
70676;DHT22;59069;52.242;20.900;2023-05-31T14:11:58;26.53;17.49
70676;DHT22;59069;52.242;20.900;2023-05-31T14:14:24;26.43;17.68
70676;DHT22;59069;52.242;20.900;2023-05-31T14:16:51;26.43;17.93
70676;DHT22;59069;52.242;20.900;2023-05-31T14:19:17;26.49;17.83
70676;DHT22;59069;52.242;20.900;2023-05-31T14:21:43;26.50;17.43
70676;DHT22;59069;52.242;20.900;2023-05-31T14:24:08;26.39;17.53
70676;DHT22;59069;52.242;20.900;2023-05-31T14:26:34;26.36;17.89
70676;DHT22;59069;52.242;20.900;2023-05-31T14:28:59;26.17;17.17
70676;DHT22;59069;52.242;20.900;2023-05-31T14:31:25;26.01;17.81
70676;DHT22;59069;52.242;20.900;2023-05-31T14:33:50;26.01;17.68
70676;DHT22;59069;52.242;20.900;2023-05-31T14:36:16;26.05;17.94
70676;DHT22;59069;52.242;20.900;2023-05-31T14:38:43;26.12;17.72
70676;DHT22;59069;52.242;20.900;2023-05-31T14:41:08;26.19;18.45
70676;DHT22;59069;52.242;20.900;2023-05-31T14:43:34;26.28;18.15
70676;DHT22;59069;52.242;20.900;2023-05-31T14:45:59;26.32;17.69
70676;DHT22;59069;52.242;20.900;2023-05-31T14:48:25;26.31;17.41
70676;DHT22;59069;52.242;20.900;2023-05-31T14:50:50;26.24;17.17
70676;DHT22;59069;52.242;20.900;2023-05-31T14:53:16;26.12;16.64
70676;DHT22;59069;52.242;20.900;2023-05-31T14:55:41;26.00;16.59
70676;DHT22;59069;52.242;20.900;2023-05-31T14:58:07;25.97;16.52
70676;DHT22;59069;52.242;20.900;2023-05-31T15:00:32;25.95;16.35
70676;DHT22;59069;52.242;20.900;2023-05-31T15:02:58;25.95;16.15
70676;DHT22;59069;52.242;20.900;2023-05-31T15:05:23;26.02;16.16
70676;DHT22;59069;52.242;20.900;2023-05-31T15:07:49;26.09;16.54
70676;DHT22;59069;52.242;20.900;2023-05-31T15:10:14;26.08;16.52
70676;DHT22;59069;52.242;20.900;2023-05-31T15:12:39;26.04;16.48
70676;DHT22;59069;52.242;20.900;2023-05-31T15:15:05;26.04;17.12
70676;DHT22;59069;52.242;20.900;2023-05-31T15:17:31;26.06;17.36
70676;DHT22;59069;52.242;20.900;2023-05-31T15:19:56;26.17;17.44
70676;DHT22;59069;52.242;20.900;2023-05-31T15:22:22;26.22;17.23
70676;DHT22;59069;52.242;20.900;2023-05-31T15:24:47;26.24;17.28
70676;DHT22;59069;52.242;20.900;2023-05-31T15:27:13;26.22;17.35
70676;DHT22;59069;52.242;20.900;2023-05-31T15:29:39;26.08;17.04
70676;DHT22;59069;52.242;20.900;2023-05-31T15:32:05;25.98;17.33
70676;DHT22;59069;52.242;20.900;2023-05-31T15:34:33;25.87;17.66